createdAt,value
2022-12-06T00:01:32.357Z,55.43
2022-12-06T00:04:04.237Z,55.33
2022-12-06T00:06:34.373Z,54.61
2022-12-06T00:09:01.705Z,55.00
2022-12-06T00:11:34.934Z,54.84
2022-12-06T00:14:06.841Z,54.89
2022-12-06T00:16:35.556Z,54.72
2022-12-06T00:19:03.833Z,54.19
2022-12-06T00:21:34.794Z,54.12
2022-12-06T00:24:10.958Z,53.86
2022-12-06T00:26:40.482Z,54.05
2022-12-06T00:29:12.349Z,54.63
2022-12-06T00:31:39.607Z,54.57
2022-12-06T00:34:07.022Z,54.44
2022-12-06T00:36:40.169Z,54.06
2022-12-06T00:39:12.035Z,53.81
2022-12-06T00:41:39.792Z,53.85
2022-12-06T00:44:07.446Z,53.71
2022-12-06T00:46:36.163Z,53.43
2022-12-06T00:49:06.811Z,53.94
2022-12-06T00:51:35.502Z,53.85
2022-12-06T00:54:02.911Z,53.56
2022-12-06T00:56:30.102Z,53.93
2022-12-06T00:58:57.184Z,53.97
2022-12-06T01:01:30.860Z,53.74
2022-12-06T01:04:02.242Z,53.93
2022-12-06T01:06:32.812Z,53.65
2022-12-06T01:09:05.355Z,54.04
2022-12-06T01:11:33.233Z,54.44
2022-12-06T01:14:00.504Z,54.02
2022-12-06T01:16:30.908Z,54.01
2022-12-06T01:19:01.465Z,54.20
2022-12-06T01:21:29.612Z,54.68
2022-12-06T01:23:57.105Z,54.59
2022-12-06T01:26:28.263Z,54.72
2022-12-06T01:28:55.702Z,54.83
2022-12-06T01:31:22.914Z,55.49
2022-12-06T01:33:50.617Z,56.44
2022-12-06T01:36:25.901Z,57.14
2022-12-06T01:38:58.446Z,57.08
2022-12-06T01:41:27.293Z,56.63
2022-12-06T01:43:56.592Z,56.87
2022-12-06T01:46:40.307Z,56.72
2022-12-06T01:49:13.258Z,56.12
2022-12-06T01:52:05.304Z,55.76
2022-12-06T01:54:33.828Z,55.53
2022-12-06T01:57:04.475Z,55.64
2022-12-06T01:59:31.969Z,55.34
2022-12-06T02:01:59.485Z,55.38
2022-12-06T02:04:29.403Z,54.90
2022-12-06T02:07:03.416Z,55.33
2022-12-06T02:09:30.836Z,55.39
2022-12-06T02:11:58.130Z,55.36
2022-12-06T02:14:32.043Z,55.46
2022-12-06T02:17:40.897Z,55.73
2022-12-06T02:20:46.006Z,56.50
2022-12-06T02:23:31.081Z,56.44
2022-12-06T02:25:58.288Z,56.38
2022-12-06T02:28:37.301Z,56.18
2022-12-06T02:31:36.850Z,55.97
2022-12-06T02:34:36.494Z,55.74
2022-12-06T02:37:10.729Z,55.58
2022-12-06T02:39:52.077Z,55.54
2022-12-06T02:42:44.905Z,55.77
2022-12-06T02:45:20.804Z,54.99
2022-12-06T02:47:49.527Z,55.53
2022-12-06T02:50:32.349Z,54.95
2022-12-06T02:53:02.446Z,55.31
2022-12-06T02:55:33.727Z,55.00
2022-12-06T02:58:00.946Z,54.88
2022-12-06T03:00:47.462Z,54.75
2022-12-06T03:03:56.183Z,56.29
2022-12-06T03:06:40.027Z,56.20
2022-12-06T03:09:16.093Z,56.11
2022-12-06T03:11:57.874Z,56.48
2022-12-06T03:14:28.888Z,56.59
2022-12-06T03:17:14.777Z,55.87
2022-12-06T03:19:43.197Z,55.15
2022-12-06T03:22:26.166Z,55.42
2022-12-06T03:24:53.727Z,55.80
2022-12-06T03:27:22.992Z,55.75
2022-12-06T03:29:58.372Z,56.09
2022-12-06T03:32:31.587Z,55.75
2022-12-06T03:35:04.972Z,55.50
2022-12-06T03:37:33.977Z,55.33
2022-12-06T03:40:21.006Z,55.56
2022-12-06T03:42:49.660Z,55.34
2022-12-06T03:45:17.651Z,55.30
2022-12-06T03:47:59.061Z,55.32
2022-12-06T03:50:41.905Z,55.34
2022-12-06T03:53:09.195Z,55.46
2022-12-06T03:55:36.501Z,55.58
2022-12-06T03:58:03.625Z,56.29
2022-12-06T04:00:30.755Z,56.22
2022-12-06T04:02:57.841Z,56.55
2022-12-06T04:05:25.032Z,56.41
2022-12-06T04:07:52.241Z,56.18
2022-12-06T04:10:19.557Z,56.79
2022-12-06T04:13:02.284Z,56.38
2022-12-06T04:15:37.506Z,56.80
2022-12-06T04:18:10.756Z,56.69
2022-12-06T04:21:06.556Z,56.81
2022-12-06T04:23:40.028Z,57.55
2022-12-06T04:26:10.961Z,57.17
2022-12-06T04:28:56.985Z,57.19
2022-12-06T04:31:45.719Z,57.38
2022-12-06T04:34:32.127Z,57.66
2022-12-06T04:37:17.743Z,58.16
2022-12-06T04:39:45.175Z,58.26
2022-12-06T04:42:31.643Z,58.49
2022-12-06T04:44:59.020Z,58.00
2022-12-06T04:47:26.441Z,57.30
2022-12-06T04:49:54.148Z,57.65
2022-12-06T04:52:21.419Z,57.39
2022-12-06T04:54:48.600Z,57.95
2022-12-06T04:57:17.429Z,57.93
2022-12-06T04:59:46.244Z,57.50
2022-12-06T05:02:15.794Z,57.77
2022-12-06T05:04:43.052Z,57.58
2022-12-06T05:07:11.770Z,57.65
2022-12-06T05:09:39.416Z,57.46
2022-12-06T05:12:07.300Z,57.20
2022-12-06T05:14:34.497Z,56.50
2022-12-06T05:17:01.698Z,56.56
2022-12-06T05:19:28.937Z,56.60
2022-12-06T05:21:56.038Z,57.01
2022-12-06T05:24:23.209Z,57.50
2022-12-06T05:26:50.740Z,57.75
2022-12-06T05:29:17.875Z,57.63
2022-12-06T05:31:45.134Z,57.62
2022-12-06T05:34:12.243Z,57.59
2022-12-06T05:36:39.416Z,57.30
2022-12-06T05:39:06.558Z,57.08
2022-12-06T05:41:33.663Z,56.27
2022-12-06T05:44:00.764Z,55.86
2022-12-06T05:46:28.082Z,56.43
2022-12-06T05:48:55.246Z,56.99
2022-12-06T05:51:22.341Z,56.89
2022-12-06T05:53:49.534Z,56.74
2022-12-06T05:56:16.639Z,56.90
2022-12-06T05:58:43.845Z,56.92
2022-12-06T06:01:11.031Z,57.01
2022-12-06T06:03:42.384Z,57.39
2022-12-06T06:06:14.702Z,57.65
2022-12-06T06:08:42.084Z,58.33
2022-12-06T06:11:09.311Z,58.21
2022-12-06T06:13:36.554Z,57.56
2022-12-06T06:16:04.183Z,57.99
2022-12-06T06:18:31.317Z,58.07
2022-12-06T06:21:00.219Z,58.66
2022-12-06T06:23:28.775Z,58.18
2022-12-06T06:25:56.477Z,57.43
2022-12-06T06:28:24.062Z,56.93
2022-12-06T06:30:51.541Z,56.56
2022-12-06T06:33:19.174Z,56.20
2022-12-06T06:35:46.300Z,56.49
2022-12-06T06:38:13.454Z,56.74
2022-12-06T06:40:40.747Z,56.65
2022-12-06T06:43:20.717Z,56.63
2022-12-06T06:45:57.554Z,56.27
2022-12-06T06:48:26.744Z,56.51
2022-12-06T06:50:57.531Z,56.35
2022-12-06T06:53:27.771Z,56.56
2022-12-06T06:55:55.518Z,56.17
2022-12-06T06:58:23.060Z,55.76
2022-12-06T07:01:02.381Z,55.74
2022-12-06T07:03:29.812Z,56.85
2022-12-06T07:06:00.833Z,57.96
2022-12-06T07:08:30.583Z,57.55
2022-12-06T07:10:58.226Z,58.78
2022-12-06T07:13:28.331Z,59.54
2022-12-06T07:15:56.075Z,59.94
2022-12-06T07:18:23.651Z,59.76
2022-12-06T07:21:04.224Z,60.08
2022-12-06T07:23:34.743Z,59.60
2022-12-06T07:26:14.774Z,59.38
2022-12-06T07:28:44.721Z,59.76
2022-12-06T07:31:19.819Z,59.87
2022-12-06T07:33:49.598Z,59.11
2022-12-06T07:36:17.497Z,58.94
2022-12-06T07:38:50.231Z,58.48
2022-12-06T07:41:38.791Z,58.05
2022-12-06T07:44:33.553Z,58.04
2022-12-06T07:47:00.840Z,58.31
2022-12-06T07:49:28.567Z,58.35
2022-12-06T07:51:57.470Z,57.76
2022-12-06T07:54:25.013Z,57.59
2022-12-06T07:56:52.587Z,57.74
2022-12-06T07:59:20.068Z,57.69
2022-12-06T08:01:47.821Z,57.51
2022-12-06T08:04:15.501Z,57.46
2022-12-06T08:06:45.122Z,57.38
2022-12-06T08:09:12.691Z,57.40
2022-12-06T08:51:34.444Z,56.88
2022-12-06T08:54:02.127Z,56.44
2022-12-06T08:56:29.866Z,55.92
2022-12-06T08:58:57.269Z,55.93
2022-12-06T09:01:37.143Z,55.83
2022-12-06T09:04:07.845Z,56.06
2022-12-06T09:06:37.857Z,55.12
2022-12-06T09:09:05.001Z,54.84
2022-12-06T09:11:32.210Z,54.60
2022-12-06T09:13:59.482Z,54.52
2022-12-06T09:16:26.713Z,53.79
2022-12-06T09:18:53.832Z,53.44
2022-12-06T09:21:24.705Z,52.81
2022-12-06T09:23:56.328Z,53.24
2022-12-06T09:26:25.879Z,53.13
2022-12-06T09:28:55.191Z,54.03
2022-12-06T09:31:23.017Z,54.08
2022-12-06T09:33:50.282Z,54.07
2022-12-06T09:36:29.257Z,54.19
2022-12-06T09:39:12.225Z,54.44
2022-12-06T09:42:04.008Z,54.24
2022-12-06T09:45:17.968Z,54.55
2022-12-06T09:48:21.616Z,54.64
2022-12-06T09:51:23.931Z,54.49
2022-12-06T09:54:12.513Z,54.44
2022-12-06T09:57:16.389Z,55.00
2022-12-06T10:00:11.074Z,55.09
2022-12-06T10:03:29.754Z,55.10
2022-12-06T10:06:05.671Z,54.71
2022-12-06T10:09:00.181Z,54.07
2022-12-06T10:11:39.767Z,54.53
2022-12-06T10:14:27.050Z,55.13
2022-12-06T10:17:23.394Z,55.00
2022-12-06T10:20:20.795Z,54.90
2022-12-06T10:23:10.899Z,55.36
2022-12-06T10:25:46.681Z,54.79
2022-12-06T10:28:21.514Z,54.12
2022-12-06T10:31:00.897Z,54.08
2022-12-06T10:33:58.207Z,53.77
2022-12-06T10:36:45.054Z,54.31
2022-12-06T10:39:53.285Z,54.82
2022-12-06T10:42:43.683Z,54.69
2022-12-06T10:45:55.544Z,55.38
2022-12-06T10:48:41.842Z,55.44
2022-12-06T10:51:17.253Z,55.33
2022-12-06T10:53:59.786Z,54.45
2022-12-06T10:56:35.017Z,54.25
2022-12-06T10:59:20.437Z,54.17
2022-12-06T11:01:49.472Z,55.55
2022-12-06T11:04:26.455Z,54.60
2022-12-06T11:07:04.406Z,54.24
2022-12-06T11:09:45.484Z,54.91
2022-12-06T11:12:38.898Z,54.44
2022-12-06T11:15:33.029Z,53.89
2022-12-06T11:18:14.699Z,53.44
2022-12-06T11:21:20.239Z,53.34
2022-12-06T11:24:01.025Z,54.24
2022-12-06T11:26:54.122Z,53.54
2022-12-06T11:29:22.379Z,54.03
2022-12-06T11:31:53.551Z,55.08
2022-12-06T11:34:43.107Z,54.82
2022-12-06T11:37:21.989Z,54.53
2022-12-06T11:39:59.694Z,55.15
2022-12-06T11:42:28.386Z,54.84
2022-12-06T11:45:36.568Z,54.45
2022-12-06T11:48:23.752Z,54.93
2022-12-06T11:50:53.183Z,54.46
2022-12-06T11:53:32.484Z,53.54
2022-12-06T11:56:27.119Z,53.93
2022-12-06T11:59:16.837Z,54.56
2022-12-06T12:01:48.184Z,54.64
2022-12-06T12:04:44.221Z,54.35
2022-12-06T12:07:15.815Z,54.69
2022-12-06T12:09:50.765Z,54.23
2022-12-06T12:12:25.166Z,53.43
2022-12-06T12:14:59.061Z,53.87
2022-12-06T12:17:31.211Z,53.70
2022-12-06T12:20:08.151Z,53.09
2022-12-06T12:22:39.774Z,53.09
2022-12-06T12:25:27.641Z,52.87
2022-12-06T12:27:57.579Z,52.97
2022-12-06T12:30:37.230Z,53.22
2022-12-06T12:33:07.424Z,53.05
2022-12-06T12:35:42.475Z,53.32
2022-12-06T12:38:37.210Z,52.82
2022-12-06T12:41:23.511Z,52.42
2022-12-06T12:44:36.079Z,52.61
2022-12-06T12:46:56.904Z,53.20
2022-12-06T12:49:36.284Z,53.81
2022-12-06T12:52:31.954Z,53.92
2022-12-06T12:55:28.934Z,53.92
2022-12-06T12:58:00.077Z,53.92
2022-12-06T13:00:39.235Z,54.46
2022-12-06T13:03:49.057Z,54.95
2022-12-06T13:06:02.682Z,55.02
2022-12-06T13:08:35.031Z,54.75
2022-12-06T13:11:05.565Z,55.06
2022-12-06T13:13:43.648Z,54.85
2022-12-06T13:16:19.967Z,55.62
2022-12-06T13:18:58.333Z,55.38
2022-12-06T13:21:34.169Z,55.43
2022-12-06T13:24:10.341Z,55.62
2022-12-06T13:26:39.342Z,55.70
2022-12-06T13:29:42.635Z,55.63
2022-12-06T13:32:16.849Z,55.80
2022-12-06T13:34:58.180Z,55.49
2022-12-06T13:37:34.613Z,56.04
2022-12-06T13:40:06.525Z,57.01
2022-12-06T13:42:36.710Z,57.05
2022-12-06T13:45:09.960Z,57.89
2022-12-06T13:47:40.242Z,58.84
2022-12-06T13:50:19.352Z,58.39
2022-12-06T13:52:46.415Z,57.77
2022-12-06T13:55:25.741Z,56.95
2022-12-06T13:57:56.062Z,57.03
2022-12-06T14:00:32.029Z,57.45
2022-12-06T14:03:02.860Z,57.14
2022-12-06T14:06:01.166Z,57.29
2022-12-06T14:08:37.490Z,57.80
2022-12-06T14:11:18.329Z,58.50
2022-12-06T14:14:01.080Z,57.77
2022-12-06T14:16:49.058Z,57.91
2022-12-06T14:19:24.431Z,57.59
2022-12-06T14:22:14.019Z,57.39
2022-12-06T14:24:43.571Z,57.14
2022-12-06T14:27:18.413Z,57.32
2022-12-06T14:30:25.978Z,57.09
2022-12-06T14:32:59.637Z,57.43
2022-12-06T14:35:35.693Z,57.54
2022-12-06T14:38:21.587Z,56.94
2022-12-06T14:41:08.285Z,57.18
2022-12-06T14:43:36.101Z,57.09
2022-12-06T14:46:07.504Z,56.54
2022-12-06T14:48:54.053Z,56.25
2022-12-06T14:51:35.379Z,56.24
2022-12-06T14:54:20.390Z,56.20
2022-12-06T14:56:48.382Z,55.89
2022-12-06T14:59:47.366Z,55.25
2022-12-06T15:02:31.558Z,55.42
2022-12-06T15:04:59.746Z,55.69
2022-12-06T15:07:42.811Z,55.65
2022-12-06T15:10:25.737Z,55.82
2022-12-06T15:12:57.487Z,56.15
2022-12-06T15:15:39.651Z,56.63
2022-12-06T15:18:26.663Z,56.07
2022-12-06T15:20:55.209Z,56.47
2022-12-06T15:23:41.187Z,57.39
2022-12-06T15:26:12.114Z,56.92
2022-12-06T15:28:40.627Z,57.11
2022-12-06T15:31:21.394Z,57.02
2022-12-06T15:33:49.092Z,57.73
2022-12-06T15:36:19.786Z,57.28
2022-12-06T15:38:47.574Z,57.46
2022-12-06T15:41:21.201Z,58.18
2022-12-06T15:43:50.011Z,58.04
2022-12-06T15:46:24.839Z,57.59
2022-12-06T15:48:56.417Z,58.18
2022-12-06T15:51:26.694Z,58.08
2022-12-06T15:53:56.708Z,58.88
2022-12-06T15:56:28.454Z,58.97
2022-12-06T15:58:56.134Z,59.54
2022-12-06T16:01:33.095Z,59.18
2022-12-06T16:04:01.249Z,58.36
2022-12-06T16:06:29.517Z,58.68
2022-12-06T16:08:57.209Z,58.68
2022-12-06T16:11:27.128Z,58.20
2022-12-06T16:13:54.485Z,58.04
2022-12-06T16:16:22.843Z,59.36
2022-12-06T16:18:50.959Z,58.99
2022-12-06T16:21:50.106Z,58.19
2022-12-06T16:24:17.548Z,57.86
2022-12-06T16:26:46.568Z,58.18
2022-12-06T16:29:20.961Z,58.83
2022-12-06T16:31:49.201Z,58.87
2022-12-06T16:34:16.511Z,59.12
2022-12-06T16:37:06.595Z,58.91
2022-12-06T16:39:35.641Z,58.53
2022-12-06T16:42:05.158Z,58.32
2022-12-06T16:44:32.537Z,58.08
2022-12-06T16:46:59.949Z,57.98
2022-12-06T16:49:45.769Z,57.79
2022-12-06T16:52:16.281Z,57.91
2022-12-06T16:54:44.290Z,58.03
2022-12-06T16:57:13.162Z,57.97
2022-12-06T16:59:42.281Z,57.93
2022-12-06T17:02:27.037Z,57.67
2022-12-06T17:04:55.910Z,57.61
2022-12-06T17:07:23.484Z,57.64
2022-12-06T17:09:50.727Z,58.75
2022-12-06T17:12:18.129Z,58.51
2022-12-06T17:14:45.461Z,58.73
2022-12-06T17:17:21.809Z,58.95
2022-12-06T17:19:49.601Z,59.13
2022-12-06T17:22:17.476Z,58.56
2022-12-06T17:24:45.112Z,59.27
2022-12-06T17:27:14.889Z,59.51
2022-12-06T17:29:43.730Z,59.29
2022-12-06T17:32:11.924Z,59.33
2022-12-06T17:34:40.448Z,60.27
2022-12-06T17:37:07.579Z,60.50
2022-12-06T17:39:34.944Z,60.79
2022-12-06T17:42:21.038Z,61.71
2022-12-06T17:44:48.224Z,61.44
2022-12-06T17:47:15.750Z,61.47
2022-12-06T17:49:42.905Z,61.22
2022-12-06T17:52:12.500Z,60.64
2022-12-06T17:54:39.842Z,61.27
2022-12-06T17:57:07.185Z,61.07
2022-12-06T17:59:34.453Z,60.27
2022-12-06T18:02:18.229Z,60.74
2022-12-06T18:04:47.601Z,60.83
2022-12-06T18:07:16.639Z,61.15
2022-12-06T18:09:44.749Z,61.34
2022-12-06T18:12:14.113Z,61.29
2022-12-06T18:14:41.173Z,61.55
2022-12-06T18:17:08.478Z,61.33
2022-12-06T18:19:35.796Z,61.29
2022-12-06T18:22:03.343Z,62.08
2022-12-06T18:24:35.255Z,61.66
2022-12-06T18:27:04.619Z,61.11
2022-12-06T18:29:31.921Z,61.87
2022-12-06T18:31:59.114Z,61.36
2022-12-06T18:34:26.322Z,60.54
2022-12-06T18:36:53.368Z,61.47
2022-12-06T18:39:24.619Z,62.27
2022-12-06T18:41:54.279Z,61.47
2022-12-06T18:44:22.557Z,61.67
2022-12-06T18:46:49.955Z,61.32
2022-12-06T18:49:17.266Z,61.41
2022-12-06T18:51:44.523Z,61.14
2022-12-06T18:54:14.008Z,61.29
2022-12-06T18:56:42.516Z,61.58
2022-12-06T18:59:11.691Z,61.50
2022-12-06T19:01:40.450Z,61.70
2022-12-06T19:04:09.539Z,62.00
2022-12-06T19:06:38.551Z,62.42
2022-12-06T19:09:12.792Z,62.65
2022-12-06T19:11:43.078Z,63.19
2022-12-06T19:14:10.790Z,62.97
2022-12-06T19:16:46.270Z,62.68
2022-12-06T19:19:20.311Z,62.82
2022-12-06T19:21:49.065Z,62.98
2022-12-06T19:24:21.554Z,63.73
2022-12-06T19:26:51.464Z,63.85
2022-12-06T19:29:19.306Z,63.28
2022-12-06T19:31:46.912Z,63.06
2022-12-06T19:34:26.932Z,63.58
2022-12-06T19:36:56.857Z,63.11
2022-12-06T19:39:25.220Z,62.92
2022-12-06T19:42:11.283Z,62.53
2022-12-06T19:44:38.822Z,62.35
2022-12-06T19:47:06.084Z,62.89
2022-12-06T19:49:33.366Z,62.00
2022-12-06T19:52:01.140Z,62.93
2022-12-06T19:54:33.442Z,62.49
2022-12-06T19:57:01.750Z,63.03
2022-12-06T19:59:33.851Z,62.71
2022-12-06T20:02:02.361Z,62.35
2022-12-06T20:04:40.090Z,62.05
2022-12-06T20:07:08.908Z,61.81
2022-12-06T20:09:36.231Z,61.46
2022-12-06T20:12:05.543Z,61.53
2022-12-06T20:14:47.907Z,60.86
2022-12-06T20:17:19.588Z,61.68
2022-12-06T20:19:48.386Z,61.95
2022-12-06T20:22:18.253Z,61.77
2022-12-06T20:24:46.427Z,61.33
2022-12-06T20:27:13.758Z,61.64
2022-12-06T20:29:41.025Z,61.26
2022-12-06T20:32:09.262Z,61.43
2022-12-06T20:34:36.534Z,62.26
2022-12-06T20:37:06.108Z,61.54
2022-12-06T20:39:35.980Z,61.83
2022-12-06T20:42:05.761Z,62.69
2022-12-06T20:44:33.760Z,62.60
2022-12-06T20:47:01.502Z,62.87
2022-12-06T20:49:28.648Z,63.09
2022-12-06T20:51:56.723Z,63.07
2022-12-06T20:54:23.902Z,62.58
2022-12-06T20:56:52.038Z,62.91
2022-12-06T20:59:20.108Z,62.45
2022-12-06T21:01:47.714Z,62.22
2022-12-06T21:04:15.900Z,62.12
2022-12-06T21:06:43.139Z,62.49
2022-12-06T21:09:10.727Z,62.60
2022-12-06T21:11:38.744Z,62.69
2022-12-06T21:14:06.251Z,61.89
2022-12-06T21:16:35.463Z,62.41
2022-12-06T21:19:07.183Z,63.01
2022-12-06T21:21:38.449Z,62.57
2022-12-06T21:24:12.597Z,62.71
2022-12-06T21:26:40.006Z,62.85
2022-12-06T21:29:07.332Z,62.34
2022-12-06T21:31:43.024Z,62.82
2022-12-06T21:34:12.233Z,62.69
2022-12-06T21:36:39.547Z,62.84
2022-12-06T21:39:13.517Z,62.69
2022-12-06T21:41:41.152Z,62.18
2022-12-06T21:44:08.299Z,62.51
2022-12-06T21:46:35.605Z,63.00
2022-12-06T21:49:02.978Z,62.35
2022-12-06T21:51:33.444Z,61.92
2022-12-06T21:54:01.547Z,62.22
2022-12-06T21:56:30.900Z,61.96
2022-12-06T21:59:01.287Z,62.26
2022-12-06T22:01:30.537Z,61.68
2022-12-06T22:04:03.125Z,61.96
2022-12-06T22:06:31.604Z,61.87
2022-12-06T22:09:06.012Z,61.30
2022-12-06T22:11:34.667Z,62.18
2022-12-06T22:14:02.461Z,62.26
2022-12-06T22:16:29.996Z,61.99
2022-12-06T22:18:58.213Z,61.44
2022-12-06T22:21:29.301Z,61.54
2022-12-06T22:23:58.344Z,62.53
2022-12-06T22:26:30.692Z,61.94
2022-12-06T22:29:00.247Z,61.97
2022-12-06T22:31:30.864Z,62.53
2022-12-06T22:33:59.472Z,62.55
2022-12-06T22:36:29.313Z,62.75
2022-12-06T22:38:59.573Z,62.35
2022-12-06T22:41:28.146Z,62.78
2022-12-06T22:43:59.437Z,63.09
2022-12-06T22:46:27.835Z,62.44
2022-12-06T22:48:56.390Z,62.67
2022-12-06T22:51:37.152Z,63.76
2022-12-06T22:54:11.667Z,63.20
2022-12-06T22:56:41.293Z,63.40
2022-12-06T22:59:09.666Z,63.69
2022-12-06T23:01:36.913Z,63.36
2022-12-06T23:04:07.178Z,62.88
2022-12-06T23:06:36.204Z,63.23
2022-12-06T23:09:05.781Z,63.11
2022-12-06T23:11:36.324Z,62.93
2022-12-06T23:14:04.542Z,62.64
2022-12-06T23:16:32.548Z,62.69
2022-12-06T23:19:04.151Z,61.72
2022-12-06T23:21:34.809Z,61.75
2022-12-06T23:24:05.997Z,61.15
2022-12-06T23:26:45.956Z,60.75
2022-12-06T23:29:15.312Z,61.21
2022-12-06T23:31:45.349Z,60.92
2022-12-06T23:34:22.997Z,60.23
2022-12-06T23:36:50.198Z,60.49
2022-12-06T23:39:17.672Z,59.71
2022-12-06T23:41:45.487Z,59.44
2022-12-06T23:44:13.429Z,59.56
2022-12-06T23:46:42.776Z,59.55
2022-12-06T23:49:18.702Z,59.40
2022-12-06T23:51:47.032Z,59.54
2022-12-06T23:54:16.016Z,59.77
2022-12-06T23:56:43.537Z,59.11
2022-12-06T23:59:14.659Z,58.91
